Time;durP1;ratioP1;P1;durP2;ratioP2;P2;SDS_P1;SDS_P2;PMS_P1;PMS_P2;Temp;Humidity;BMP_temperature;BMP_pressure;BME280_temperature;BME280_humidity;BME280_pressure;Samples;Min_cycle;Max_cycle;Signal;HPM_P1;HPM_P2
2022/12/26 00:00:30;;;;;;;1.15;0.73;;;;;;;6.47;53.99;96042.34;4951752;29;20226;-66
2022/12/26 00:02:57;;;;;;;4.40;2.28;;;;;;;6.51;54.00;96042.75;4951652;29;20239;-62
2022/12/26 00:05:24;;;;;;;2.72;2.50;;;;;;;6.47;54.53;96044.94;4951962;29;20200;-62
2022/12/26 00:07:51;;;;;;;1.15;1.10;;;;;;;6.36;55.06;96045.56;4951638;29;20192;-64
2022/12/26 00:10:18;;;;;;;2.75;2.42;;;;;;;6.22;54.98;96043.16;4951437;29;20252;-64
2022/12/26 00:12:45;;;;;;;1.13;1.13;;;;;;;6.39;54.94;96050.34;4951787;29;20671;-65
2022/12/26 00:15:12;;;;;;;4.00;2.30;;;;;;;6.48;54.72;96046.53;4951417;29;20223;-65
2022/12/26 00:17:38;;;;;;;0.52;0.52;;;;;;;6.42;54.24;96049.97;4951092;29;20687;-64
2022/12/26 00:20:06;;;;;;;0.45;0.45;;;;;;;6.32;55.00;96048.75;4951372;29;20200;-64
2022/12/26 00:22:33;;;;;;;1.95;1.83;;;;;;;6.25;55.02;96053.97;4950932;29;20795;-63
2022/12/26 00:25:00;;;;;;;3.92;3.63;;;;;;;6.23;55.08;96055.97;4951441;29;20327;-63
2022/12/26 00:27:26;;;;;;;5.28;3.88;;;;;;;6.10;55.58;96056.75;4951506;29;20632;-64
2022/12/26 00:29:53;;;;;;;2.35;1.90;;;;;;;6.19;55.35;96059.97;4952157;29;20278;-65
2022/12/26 00:32:20;;;;;;;2.97;2.72;;;;;;;6.11;55.21;96063.53;4952095;29;20211;-65
2022/12/26 00:34:48;;;;;;;1.20;1.13;;;;;;;5.88;56.24;96057.94;4954597;28;20678;-65
2022/12/26 00:37:14;;;;;;;1.38;0.93;;;;;;;5.82;56.44;96056.06;4962098;28;20742;-64
2022/12/26 00:39:41;;;;;;;1.23;1.17;;;;;;;4.87;58.83;96060.53;4952014;29;20195;-62
2022/12/26 00:42:08;;;;;;;0.20;0.20;;;;;;;4.62;60.40;96069.75;4951332;29;20287;-66
2022/12/26 00:44:35;;;;;;;1.92;0.98;;;;;;;5.24;58.80;96061.13;4951758;29;20739;-65
2022/12/26 00:47:02;;;;;;;0.68;0.68;;;;;;;5.19;58.81;96082.47;4951917;29;20196;-64
2022/12/26 00:49:29;;;;;;;3.65;2.22;;;;;;;5.46;58.10;96072.97;4951227;29;20192;-62
2022/12/26 00:52:16;;;;;;;1.58;0.60;;;;;;;5.70;57.54;96069.84;4951384;29;20223;-64
2022/12/26 00:54:42;;;;;;;0.13;0.13;;;;;;;5.88;57.67;96057.94;4951619;29;20188;-65
2022/12/26 00:57:09;;;;;;;0.10;0.10;;;;;;;6.01;57.61;96067.53;4951331;29;20204;-63
2022/12/26 00:59:36;;;;;;;2.30;1.98;;;;;;;6.11;56.61;96073.19;4951652;29;20192;-65
2022/12/26 01:02:36;;;;;;;3.03;1.67;;;;;;;5.91;56.58;96052.31;4951549;29;20200;-63
2022/12/26 01:04:51;;;;;;;2.92;1.02;;;;;;;6.12;56.16;96069.56;4950853;29;20196;-63
2022/12/26 01:07:17;;;;;;;0.00;0.00;;;;;;;6.02;55.73;96071.78;4933774;29;20635;-64
2022/12/26 01:09:44;;;;;;;0.57;0.25;;;;;;;5.93;56.06;96070.34;4951379;29;20309;-63
2022/12/26 01:12:11;;;;;;;1.55;1.45;;;;;;;5.80;56.48;96080.69;4951084;29;20251;-65
2022/12/26 01:14:39;;;;;;;2.75;1.27;;;;;;;5.72;55.85;96047.06;4951688;29;20204;-66
2022/12/26 01:17:05;;;;;;;1.50;1.05;;;;;;;5.72;56.18;96083.47;4952276;29;20207;-63
2022/12/26 01:19:32;;;;;;;0.28;0.28;;;;;;;5.57;56.71;96096.63;4951921;29;20669;-66
2022/12/26 01:21:59;;;;;;;0.88;0.57;;;;;;;5.62;56.40;96096.06;4950635;29;20203;-65
2022/12/26 01:24:26;;;;;;;0.15;0.15;;;;;;;5.75;55.99;96109.06;4951422;29;20200;-65
2022/12/26 01:26:52;;;;;;;1.42;1.33;;;;;;;5.73;56.34;96111.09;4951554;29;20258;-66
2022/12/26 01:29:19;;;;;;;0.00;0.00;;;;;;;5.64;56.30;96112.25;4951404;29;20228;-65
2022/12/26 01:31:46;;;;;;;0.75;0.60;;;;;;;5.70;56.08;96108.84;4951198;29;20220;-66
2022/12/26 01:34:13;;;;;;;3.28;2.13;;;;;;;5.77;55.75;96101.88;4952857;29;20676;-65
2022/12/26 01:36:41;;;;;;;0.10;0.10;;;;;;;5.90;55.25;96102.75;4937101;29;20585;-63
2022/12/26 01:39:08;;;;;;;0.47;0.47;;;;;;;5.80;55.82;96101.50;4951488;29;20207;-64
2022/12/26 01:41:36;;;;;;;0.80;0.80;;;;;;;4.63;58.71;96107.72;4951457;29;20303;-63
2022/12/26 01:44:06;;;;;;;1.45;1.38;;;;;;;4.93;58.34;96103.09;4951604;29;20267;-66
2022/12/26 01:46:37;;;;;;;4.90;0.75;;;;;;;5.10;58.25;96099.22;4951031;29;20200;-62
2022/12/26 01:49:39;;;;;;;1.65;1.55;;;;;;;4.42;60.34;96094.78;4950880;29;20204;-63
2022/12/26 01:52:12;;;;;;;1.25;1.15;;;;;;;4.55;60.45;96084.50;4923382;29;20617;-65
2022/12/26 01:54:42;;;;;;;0.63;0.63;;;;;;;5.01;58.84;96098.56;4947804;29;20196;-63
2022/12/26 01:57:15;;;;;;;0.20;0.20;;;;;;;5.12;57.71;96102.44;4942615;29;20196;-64
2022/12/26 01:59:45;;;;;;;1.35;1.35;;;;;;;4.96;57.74;96094.94;4951352;29;20204;-65
2022/12/26 02:02:13;;;;;;;0.10;0.10;;;;;;;4.99;57.63;96086.75;4950644;29;20200;-64
2022/12/26 02:07:32;;;;;;;1.05;1.05;;;;;;;5.16;56.95;96083.66;4950587;29;20258;-64
2022/12/26 02:10:00;;;;;;;1.23;1.17;;;;;;;5.14;57.14;96088.25;4950623;29;20204;-64
2022/12/26 02:12:32;;;;;;;0.88;0.80;;;;;;;5.20;56.40;96083.28;4950459;29;20227;-65
2022/12/26 02:15:09;;;;;;;3.90;1.23;;;;;;;5.14;56.75;96075.28;4951161;28;20199;-65
2022/12/26 02:17:37;;;;;;;1.48;1.33;;;;;;;5.16;57.11;96062.88;4941210;29;20215;-64
2022/12/26 02:20:09;;;;;;;2.78;2.45;;;;;;;5.28;56.56;96070.09;4954251;29;20648;-64
2022/12/26 02:23:00;;;;;;;2.20;1.50;;;;;;;5.22;56.75;96065.69;4954111;29;20202;-64
2022/12/26 02:25:37;;;;;;;0.68;0.68;;;;;;;5.25;56.68;96070.50;4954146;29;20299;-65
2022/12/26 02:28:19;;;;;;;2.33;2.13;;;;;;;5.30;56.69;96065.53;4954363;29;20207;-65
2022/12/26 02:31:11;;;;;;;1.02;1.02;;;;;;;5.29;56.51;96067.34;4943292;29;20251;-64
2022/12/26 02:33:45;;;;;;;8.25;2.28;;;;;;;5.25;57.00;96070.50;4954565;29;20672;-65
2022/12/26 02:36:46;;;;;;;5.78;2.95;;;;;;;5.23;57.19;96065.50;4955299;29;20206;-64
2022/12/26 02:39:21;;;;;;;1.05;1.05;;;;;;;5.33;57.16;96067.75;4944072;29;20208;-65
2022/12/26 02:42:34;;;;;;;1.15;0.82;;;;;;;5.19;56.81;96066.88;4954646;29;20204;-66
2022/12/26 02:48:12;;;;;;;1.50;1.40;;;;;;;5.23;56.54;96062.09;4954397;29;20218;-65
2022/12/26 03:15:03;;;;;;;3.50;2.47;;;;;;;4.88;57.43;96064.75;4943545;29;20232;-64
2022/12/26 03:17:39;;;;;;;4.03;3.72;;;;;;;4.90;57.23;96075.75;4939224;29;20204;-65
2022/12/26 03:20:14;;;;;;;3.17;2.05;;;;;;;5.01;57.02;96075.19;4953268;29;20200;-65
2022/12/26 03:22:47;;;;;;;3.05;2.78;;;;;;;4.92;56.78;96070.34;4953075;29;20231;-63
2022/12/26 03:28:09;;;;;;;2.30;2.08;;;;;;;4.70;57.47;96092.19;4952432;28;20212;-65
2022/12/26 03:30:48;;;;;;;2.90;2.67;;;;;;;4.82;56.82;96096.66;4952889;29;20212;-64
2022/12/26 03:36:14;;;;;;;4.53;4.13;;;;;;;4.80;57.98;96088.25;4952929;29;20208;-66
2022/12/26 03:39:08;;;;;;;4.47;3.65;;;;;;;4.76;58.37;96089.63;4950514;29;20232;-64
2022/12/26 04:19:57;;;;;;;1.73;1.15;;;;;;;3.97;61.73;96095.19;4952769;29;20202;-65
2022/12/26 04:45:49;;;;;;;1.73;1.60;;;;;;;4.25;59.64;96097.81;4952146;29;20246;-64
2022/12/26 04:51:01;;;;;;;2.17;2.03;;;;;;;4.18;59.90;96102.94;4951529;29;20676;-64
2022/12/26 04:53:28;;;;;;;1.65;1.58;;;;;;;3.59;62.48;96106.75;4951579;29;20206;-64
2022/12/26 04:55:55;;;;;;;0.93;0.55;;;;;;;4.08;61.11;96111.06;4951434;29;20207;-66
2022/12/26 04:58:23;;;;;;;4.63;1.60;;;;;;;3.97;60.94;96110.75;4951100;29;20208;-66
2022/12/26 05:00:50;;;;;;;7.00;2.95;;;;;;;4.07;60.08;96112.03;4950934;29;20198;-65
2022/12/26 05:11:55;;;;;;;6.75;2.35;;;;;;;3.94;61.32;96111.91;4911595;29;20212;-64
2022/12/26 05:14:22;;;;;;;1.38;1.27;;;;;;;3.93;60.83;96117.28;4936270;29;20200;-65
2022/12/26 05:30:54;;;;;;;0.93;0.93;;;;;;;3.93;59.83;96146.59;4940978;29;20235;-68
2022/12/26 05:36:08;;;;;;;0.95;0.95;;;;;;;3.86;60.22;96150.94;4950986;29;20211;-65
2022/12/26 05:38:36;;;;;;;1.58;1.48;;;;;;;3.87;60.34;96151.72;4951180;29;20219;-65
2022/12/26 05:41:03;;;;;;;2.22;2.03;;;;;;;3.64;61.25;96145.88;4951220;28;20204;-64
2022/12/26 05:43:30;;;;;;;5.53;3.08;;;;;;;2.95;63.25;96142.81;4951213;29;20816;-66
2022/12/26 05:45:57;;;;;;;3.22;3.00;;;;;;;3.25;62.74;96145.41;4950666;29;20255;-66
2022/12/26 05:48:25;;;;;;;3.85;2.88;;;;;;;3.50;61.73;96141.53;4950727;29;20579;-64
2022/12/26 05:50:52;;;;;;;5.05;3.15;;;;;;;3.29;61.16;96141.44;4952808;28;20212;-65
2022/12/26 05:53:18;;;;;;;3.38;2.78;;;;;;;3.43;61.42;96153.59;4955069;29;20212;-64
2022/12/26 05:55:45;;;;;;;1.65;1.55;;;;;;;3.58;60.80;96147.41;4954856;29;20833;-67
2022/12/26 05:58:12;;;;;;;1.80;1.70;;;;;;;3.82;60.14;96143.69;4954347;29;20224;-65
2022/12/26 06:00:39;;;;;;;0.60;0.60;;;;;;;3.85;59.93;96143.34;4954871;29;20196;-64
2022/12/26 06:03:07;;;;;;;8.23;2.85;;;;;;;3.58;60.02;96136.22;4941899;29;20202;-65
2022/12/26 06:05:34;;;;;;;3.65;3.30;;;;;;;3.58;60.31;96141.41;4944398;29;20285;-66
2022/12/26 06:08:01;;;;;;;6.75;2.80;;;;;;;3.61;60.20;96146.25;4951193;29;20200;-67
2022/12/26 06:10:28;;;;;;;2.45;1.83;;;;;;;3.86;59.67;96150.13;4953797;29;20192;-62
2022/12/26 06:12:55;;;;;;;2.33;1.95;;;;;;;3.89;59.45;96154.91;4954172;29;20216;-68
2022/12/26 06:15:22;;;;;;;0.98;0.95;;;;;;;3.95;59.09;96154.19;4951210;29;20294;-67
2022/12/26 06:17:49;;;;;;;2.03;1.33;;;;;;;3.98;58.92;96154.63;4953163;29;20192;-65
2022/12/26 06:20:16;;;;;;;4.05;3.13;;;;;;;3.87;59.48;96156.91;4953082;29;20280;-67
2022/12/26 06:22:43;;;;;;;12.13;5.90;;;;;;;3.78;60.05;96152.81;4954378;29;20308;-65
2022/12/26 06:25:10;;;;;;;9.25;4.88;;;;;;;3.66;60.36;96149.91;4953094;29;20212;-65
2022/12/26 06:27:37;;;;;;;3.05;2.15;;;;;;;3.85;60.06;96153.72;4948581;29;20936;-67
2022/12/26 06:30:04;;;;;;;1.88;1.77;;;;;;;3.69;60.36;96159.91;4952724;29;20679;-66
2022/12/26 06:32:32;;;;;;;15.07;2.53;;;;;;;3.69;60.63;96167.66;4952279;29;20235;-63
2022/12/26 06:34:59;;;;;;;4.63;3.38;;;;;;;3.58;60.73;96164.72;4952790;29;20747;-66
2022/12/26 06:37:26;;;;;;;8.00;5.72;;;;;;;3.66;60.81;96165.44;4953013;29;20208;-69
2022/12/26 06:39:52;;;;;;;4.60;3.17;;;;;;;3.74;60.50;96165.34;4953338;29;20203;-69
2022/12/26 06:42:19;;;;;;;3.33;3.05;;;;;;;3.87;60.00;96162.06;4953334;29;20634;-60
2022/12/26 06:44:46;;;;;;;3.13;2.83;;;;;;;3.97;60.01;96172.97;4952722;29;20291;-64
2022/12/26 06:47:13;;;;;;;3.28;2.83;;;;;;;4.12;59.86;96165.97;4953930;29;20271;-64
2022/12/26 06:49:40;;;;;;;5.50;3.03;;;;;;;4.26;59.57;96172.88;4953560;29;20196;-64
2022/12/26 06:52:07;;;;;;;7.90;4.95;;;;;;;4.29;59.21;96172.50;4952915;29;20226;-67
2022/12/26 06:54:34;;;;;;;6.72;6.07;;;;;;;4.62;58.70;96178.78;4953500;29;20266;-62
2022/12/26 06:57:00;;;;;;;13.82;3.42;;;;;;;4.68;58.25;96177.25;4952939;29;20625;-64
2022/12/26 06:59:27;;;;;;;3.00;2.78;;;;;;;4.54;59.20;96173.75;4953048;29;20248;-67
2022/12/26 07:01:54;;;;;;;6.20;5.00;;;;;;;4.71;59.52;96179.44;4952177;28;20212;-63
2022/12/26 07:04:21;;;;;;;5.70;5.07;;;;;;;4.93;58.32;96170.63;4953904;29;20286;-66
2022/12/26 07:06:48;;;;;;;8.85;6.88;;;;;;;5.04;58.59;96183.09;4953292;29;20196;-66
2022/12/26 07:09:17;;;;;;;2.72;2.53;;;;;;;5.12;58.21;96181.19;4953469;29;20223;-66
2022/12/26 07:11:48;;;;;;;3.58;3.33;;;;;;;5.18;58.06;96178.81;4952561;28;20222;-63
2022/12/26 07:14:15;;;;;;;10.82;7.78;;;;;;;5.39;57.79;96191.72;4952647;29;20676;-68
2022/12/26 07:16:43;;;;;;;3.78;3.05;;;;;;;5.39;58.19;96184.72;4955802;28;20667;-65
2022/12/26 07:19:12;;;;;;;4.85;4.35;;;;;;;5.62;58.08;96193.03;4971552;28;20258;-64
2022/12/26 07:21:40;;;;;;;4.93;3.97;;;;;;;5.45;58.01;96185.75;4958612;28;20270;-64
2022/12/26 07:24:19;;;;;;;3.17;2.88;;;;;;;5.44;58.27;96189.38;4946873;28;20222;-63
2022/12/26 07:26:47;;;;;;;6.90;5.72;;;;;;;5.55;58.64;96196.59;4968098;28;20206;-65
2022/12/26 07:29:15;;;;;;;3.25;2.95;;;;;;;5.35;58.37;96198.28;4952626;29;20259;-62
2022/12/26 07:31:41;;;;;;;2.53;2.38;;;;;;;5.70;58.62;96190.28;4966226;28;20556;-66
2022/12/26 07:34:09;;;;;;;3.85;3.55;;;;;;;5.88;58.05;96187.19;4959768;28;20234;-63
2022/12/26 07:36:36;;;;;;;5.40;4.13;;;;;;;6.00;58.50;96177.84;4956656;28;20208;-67
2022/12/26 07:39:02;;;;;;;3.05;2.85;;;;;;;5.95;58.38;96177.59;4952577;29;20259;-65
2022/12/26 07:44:15;;;;;;;2.00;1.88;;;;;;;6.29;57.80;96171.50;4951859;29;20238;-68
2022/12/26 07:46:42;;;;;;;8.40;7.32;;;;;;;6.60;57.71;96171.72;4952119;29;20203;-65
2022/12/26 07:49:11;;;;;;;6.25;3.63;;;;;;;6.81;56.86;96174.94;4952124;29;20200;-70
2022/12/26 07:51:38;;;;;;;1.95;1.85;;;;;;;6.76;56.33;96179.16;4951804;29;20271;-63
2022/12/26 07:54:05;;;;;;;4.20;3.80;;;;;;;6.78;56.31;96177.97;4951503;29;20204;-67
2022/12/26 07:56:36;;;;;;;1.17;1.17;;;;;;;6.89;56.58;96172.16;4951297;29;20635;-65
2022/12/26 07:59:03;;;;;;;3.33;2.95;;;;;;;6.85;55.75;96154.50;4950415;29;20204;-65
2022/12/26 08:01:30;;;;;;;3.40;2.28;;;;;;;7.13;56.18;96163.69;4950913;29;20207;-67
2022/12/26 08:03:57;;;;;;;9.02;3.13;;;;;;;7.24;55.56;96171.91;4950883;29;20645;-65
2022/12/26 08:06:24;;;;;;;2.88;2.63;;;;;;;7.44;55.47;96160.44;4951069;29;20211;-62
2022/12/26 08:08:51;;;;;;;1.48;1.38;;;;;;;7.56;55.36;96157.97;4951713;29;20236;-66
2022/12/26 08:11:21;;;;;;;0.63;0.63;;;;;;;7.73;54.69;96159.13;4951788;29;20291;-64
2022/12/26 08:13:49;;;;;;;2.30;1.95;;;;;;;7.98;54.13;96160.81;4951665;28;20599;-62
2022/12/26 08:16:16;;;;;;;0.63;0.63;;;;;;;8.04;53.79;96156.59;4951351;29;20916;-62
2022/12/26 08:18:43;;;;;;;1.65;1.38;;;;;;;7.84;54.38;96164.50;4951927;29;20195;-67
2022/12/26 08:21:10;;;;;;;2.05;1.95;;;;;;;7.99;53.64;96159.03;4951488;29;20200;-69
2022/12/26 08:23:38;;;;;;;1.10;0.82;;;;;;;8.27;53.53;96166.50;4951494;29;21224;-66
2022/12/26 08:26:07;;;;;;;4.88;2.05;;;;;;;8.40;53.19;96159.41;4951910;29;20223;-68
2022/12/26 08:28:34;;;;;;;0.65;0.65;;;;;;;8.03;54.78;96168.00;4951291;29;20223;-64
2022/12/26 08:31:09;;;;;;;1.40;1.33;;;;;;;8.60;54.23;96177.56;4951768;29;20192;-66
2022/12/26 08:33:36;;;;;;;1.00;0.73;;;;;;;8.59;53.44;96170.75;4951489;28;20483;-61
2022/12/26 08:36:05;;;;;;;3.80;3.27;;;;;;;8.85;53.55;96171.34;4953057;29;20448;-65
2022/12/26 08:38:32;;;;;;;2.33;2.13;;;;;;;9.12;53.47;96166.69;4951819;29;20476;-66
2022/12/26 08:41:00;;;;;;;8.30;4.37;;;;;;;9.52;52.36;96167.09;4952373;29;20440;-66
2022/12/26 08:43:27;;;;;;;6.93;2.97;;;;;;;9.84;51.22;96165.94;4952966;29;20447;-67
2022/12/26 08:46:14;;;;;;;1.77;1.63;;;;;;;10.26;50.34;96144.06;4951395;29;20455;-64
2022/12/26 08:48:43;;;;;;;1.43;1.33;;;;;;;10.10;50.13;96147.31;4951545;29;20483;-66
2022/12/26 08:51:13;;;;;;;4.63;2.17;;;;;;;10.80;48.62;96149.09;4958329;28;20491;-60
2022/12/26 08:53:40;;;;;;;3.67;2.50;;;;;;;10.98;48.20;96146.38;4950725;29;20491;-63
2022/12/26 08:56:12;;;;;;;3.27;2.50;;;;;;;11.16;48.39;96140.25;4950717;28;20444;-65
2022/12/26 08:58:40;;;;;;;4.80;3.23;;;;;;;11.08;48.38;96144.00;4951050;29;20451;-67
2022/12/26 09:01:10;;;;;;;4.20;3.63;;;;;;;10.97;48.23;96136.91;4950878;29;20843;-66
2022/12/26 09:03:38;;;;;;;1.80;1.37;;;;;;;11.07;47.88;96125.88;4950118;28;20443;-63
2022/12/26 09:06:06;;;;;;;0.83;0.83;;;;;;;11.13;47.69;96120.50;4948226;29;20507;-65
2022/12/26 09:08:34;;;;;;;1.00;1.00;;;;;;;10.98;47.95;96133.25;4950516;29;20444;-67
2022/12/26 09:11:12;;;;;;;0.83;0.63;;;;;;;11.41;47.62;96126.88;4951338;28;20450;-68
2022/12/26 09:13:40;;;;;;;0.83;0.83;;;;;;;11.37;46.69;96123.13;4938494;29;20483;-64
2022/12/26 09:16:13;;;;;;;0.57;0.57;;;;;;;11.54;47.40;96127.44;4950649;28;20448;-66
2022/12/26 09:18:41;;;;;;;1.27;1.20;;;;;;;11.61;47.33;96127.28;4960101;28;20451;-68
2022/12/26 09:21:09;;;;;;;7.57;4.57;;;;;;;11.69;47.19;96124.34;4967639;28;20448;-65
2022/12/26 09:23:37;;;;;;;9.37;5.80;;;;;;;11.73;46.85;96125.47;4960950;28;20461;-66
2022/12/26 09:26:07;;;;;;;3.40;2.50;;;;;;;12.09;46.14;96130.38;4960472;28;20806;-64
2022/12/26 09:28:35;;;;;;;5.60;5.00;;;;;;;11.88;46.37;96117.88;4966737;28;20451;-67
2022/12/26 09:31:04;;;;;;;1.80;1.60;;;;;;;11.93;46.74;96124.03;4961502;28;20973;-65
2022/12/26 09:33:32;;;;;;;1.53;1.43;;;;;;;11.83;45.75;96120.41;4966759;28;20467;-66
2022/12/26 09:35:59;;;;;;;0.73;0.73;;;;;;;11.61;46.86;96111.53;4961076;28;20462;-72
2022/12/26 09:38:31;;;;;;;1.40;1.10;;;;;;;11.56;46.88;96114.06;4966694;28;20481;-67
2022/12/26 09:41:35;;;;;;;0.30;0.30;;;;;;;11.82;46.74;96108.34;4968647;28;20434;-62
2022/12/26 09:44:02;;;;;;;1.67;0.80;;;;;;;11.89;46.81;96106.38;4961909;28;20454;-67
2022/12/26 09:46:50;;;;;;;0.77;0.77;;;;;;;11.91;45.13;96104.31;4968605;28;20489;-69
2022/12/26 09:49:24;;;;;;;3.87;2.53;;;;;;;12.14;45.85;96102.38;4970093;28;20446;-64
2022/12/26 09:51:56;;;;;;;4.70;1.63;;;;;;;12.54;45.78;96102.28;4947568;28;20473;-65
2022/12/26 09:54:36;;;;;;;4.03;2.23;;;;;;;12.70;44.44;96096.22;4957091;28;20486;-63
2022/12/26 09:57:13;;;;;;;3.63;2.60;;;;;;;12.86;44.98;96089.38;4959436;28;20937;-67
2022/12/26 10:00:03;;;;;;;2.57;2.37;;;;;;;12.89;44.45;96100.22;4957153;28;20461;-65
2022/12/26 10:02:38;;;;;;;2.17;1.97;;;;;;;12.17;45.85;96090.63;4946045;29;20439;-66
2022/12/26 10:05:05;;;;;;;2.00;1.70;;;;;;;11.75;45.31;96091.91;4964357;28;20450;-62
2022/12/26 10:07:43;;;;;;;2.63;1.80;;;;;;;11.89;44.91;96093.22;4963222;28;20453;-69
2022/12/26 10:10:13;;;;;;;1.63;1.50;;;;;;;11.97;44.65;96080.50;4954273;28;20462;-67
2022/12/26 10:13:11;;;;;;;1.50;1.03;;;;;;;12.04;44.73;96075.13;4950676;28;20590;-67
2022/12/26 10:15:50;;;;;;;1.50;1.40;;;;;;;11.57;44.91;96076.31;4953683;28;20434;-65
2022/12/26 10:18:55;;;;;;;1.90;1.30;;;;;;;12.21;45.46;96065.44;4953842;28;20807;-65
2022/12/26 10:21:35;;;;;;;5.33;2.77;;;;;;;11.90;45.64;96068.53;4956586;28;20449;-62
2022/12/26 10:24:19;;;;;;;0.67;0.67;;;;;;;12.15;45.38;96061.16;4969173;28;20970;-65
2022/12/26 10:27:00;;;;;;;1.57;1.43;;;;;;;12.49;44.04;96061.97;4956940;28;20443;-65
2022/12/26 10:29:37;;;;;;;7.77;3.20;;;;;;;12.56;44.67;96052.88;4958946;28;20448;-67
2022/12/26 10:32:13;;;;;;;0.60;0.60;;;;;;;12.68;45.09;96055.44;4955759;28;21036;-62
2022/12/26 10:34:43;;;;;;;2.93;1.83;;;;;;;12.81;43.63;96053.25;4955925;28;20506;-64
2022/12/26 10:37:25;;;;;;;5.97;3.67;;;;;;;12.63;44.33;96045.63;4966070;28;20442;-70
2022/12/26 10:40:04;;;;;;;1.20;1.17;;;;;;;13.02;43.72;96052.56;4960244;28;20455;-64
2022/12/26 10:42:43;;;;;;;2.23;2.00;;;;;;;12.52;43.13;96041.25;4970914;28;20476;-66
2022/12/26 10:45:20;;;;;;;1.23;0.70;;;;;;;12.55;45.77;96040.78;4955777;28;21008;-62
2022/12/26 10:47:50;;;;;;;0.37;0.37;;;;;;;12.95;44.32;96041.38;4966424;28;20512;-66
2022/12/26 10:50:24;;;;;;;0.53;0.47;;;;;;;13.32;43.64;96033.72;4953649;29;20580;-65
2022/12/26 10:52:57;;;;;;;1.43;1.33;;;;;;;13.18;44.29;96030.69;4955613;28;20474;-64
2022/12/26 10:55:31;;;;;;;1.50;1.40;;;;;;;13.41;43.51;96034.13;4973142;28;20442;-66
2022/12/26 10:58:24;;;;;;;1.60;1.50;;;;;;;13.33;43.59;96029.25;4959320;28;21000;-70
2022/12/26 11:00:52;;;;;;;1.33;1.23;;;;;;;13.14;43.63;96031.38;4971057;28;20446;-65
2022/12/26 11:03:20;;;;;;;1.30;0.93;;;;;;;13.19;43.34;96027.00;4962088;28;20454;-65
2022/12/26 11:05:50;;;;;;;1.03;0.93;;;;;;;13.26;44.16;96023.38;4956841;28;20534;-64
2022/12/26 11:08:46;;;;;;;0.53;0.53;;;;;;;13.46;43.50;96021.00;4953364;29;20881;-62
2022/12/26 11:11:22;;;;;;;0.30;0.30;;;;;;;13.14;43.70;96008.50;4941973;28;20447;-64
2022/12/26 11:13:53;;;;;;;1.23;1.10;;;;;;;13.29;43.47;96017.63;4956131;28;21115;-64
2022/12/26 11:16:39;;;;;;;1.97;1.80;;;;;;;13.16;44.64;96006.44;4956215;28;20454;-67
2022/12/26 11:19:05;;;;;;;4.43;3.57;;;;;;;13.28;44.36;95992.34;4952721;28;20966;-62
2022/12/26 11:21:33;;;;;;;1.67;1.57;;;;;;;13.48;43.62;95992.59;4953201;28;20443;-65
2022/12/26 11:24:18;;;;;;;1.70;1.33;;;;;;;13.54;43.82;95988.97;4959227;28;20445;-69
2022/12/26 11:26:45;;;;;;;0.80;0.80;;;;;;;13.42;43.47;95988.31;4971396;28;20883;-69
2022/12/26 11:29:18;;;;;;;0.60;0.60;;;;;;;13.39;43.18;95994.06;4972874;28;20447;-66
2022/12/26 11:32:02;;;;;;;1.23;0.90;;;;;;;13.46;44.95;95984.94;4969186;28;20479;-67
2022/12/26 11:34:36;;;;;;;3.57;1.37;;;;;;;13.47;43.94;95976.00;4952520;28;21172;-73
2022/12/26 11:37:05;;;;;;;2.03;1.90;;;;;;;13.46;43.47;95990.22;4943355;28;20447;-65
2022/12/26 11:39:36;;;;;;;1.87;1.73;;;;;;;13.40;47.16;95991.19;4971053;28;20450;-62
2022/12/26 11:42:11;;;;;;;1.17;1.17;;;;;;;13.57;43.72;95983.22;4967396;28;20450;-68
2022/12/26 11:44:44;;;;;;;1.73;1.33;;;;;;;13.56;44.68;95982.41;4956084;28;20475;-63
2022/12/26 11:47:18;;;;;;;4.53;3.13;;;;;;;13.82;41.90;95975.56;4940421;29;20451;-67
2022/12/26 11:50:02;;;;;;;6.93;5.60;;;;;;;13.10;41.46;95975.81;4952694;28;20462;-65
2022/12/26 11:52:43;;;;;;;1.40;0.63;;;;;;;13.08;41.24;95966.59;4952103;29;20461;-67
2022/12/26 11:55:32;;;;;;;1.40;1.37;;;;;;;14.01;40.23;95971.53;4956618;29;20491;-62
2022/12/26 11:58:05;;;;;;;1.83;1.73;;;;;;;15.06;39.33;95964.38;4958551;29;20530;-62
2022/12/26 12:00:41;;;;;;;1.33;1.27;;;;;;;16.18;37.92;95956.47;4957158;29;20451;-61
2022/12/26 12:03:31;;;;;;;1.63;1.20;;;;;;;16.57;37.02;95948.81;4957705;29;20454;-63
2022/12/26 12:06:08;;;;;;;6.37;3.37;;;;;;;17.09;35.88;95943.94;4940470;29;20485;-62
2022/12/26 12:08:50;;;;;;;7.03;4.77;;;;;;;17.65;34.84;95933.91;4951439;29;20508;-67
2022/12/26 12:11:46;;;;;;;4.70;1.93;;;;;;;17.91;34.19;95926.59;4954494;29;20450;-61
2022/12/26 12:14:42;;;;;;;4.50;2.90;;;;;;;18.83;32.12;95931.63;4951468;29;21049;-64
2022/12/26 12:17:19;;;;;;;1.97;1.63;;;;;;;19.41;31.06;95919.03;4941901;29;20488;-63
2022/12/26 12:20:05;;;;;;;3.03;1.77;;;;;;;20.13;29.93;95931.03;4950668;29;20466;-63
2022/12/26 12:22:54;;;;;;;1.53;1.13;;;;;;;20.38;31.62;95922.69;4944939;29;20435;-65
2022/12/26 12:25:33;;;;;;;2.23;2.03;;;;;;;19.78;32.19;95926.25;4946015;29;20235;-62
2022/12/26 12:28:24;;;;;;;2.00;1.73;;;;;;;19.41;32.37;95926.22;4913244;29;20201;-65
2022/12/26 12:31:06;;;;;;;1.73;1.63;;;;;;;18.56;32.50;95918.09;4944926;29;20196;-64
2022/12/26 12:33:42;;;;;;;1.00;0.87;;;;;;;19.29;32.12;95921.28;4948412;29;20231;-64
2022/12/26 12:36:31;;;;;;;4.07;2.73;;;;;;;20.07;31.12;95916.25;4946827;29;20204;-63
2022/12/26 12:39:30;;;;;;;3.30;1.27;;;;;;;19.96;30.72;95914.81;4946301;29;20197;-63
2022/12/26 12:42:14;;;;;;;0.87;0.87;;;;;;;20.88;30.15;95918.31;4880011;29;20209;-65
2022/12/26 12:45:18;;;;;;;0.73;0.60;;;;;;;21.49;28.11;95904.59;4945381;29;20750;-68
2022/12/26 12:48:21;;;;;;;0.67;0.67;;;;;;;22.06;27.04;95906.56;4946123;29;20573;-64
2022/12/26 12:51:09;;;;;;;4.77;4.23;;;;;;;21.82;28.88;95908.72;4939129;29;20864;-65
2022/12/26 12:54:14;;;;;;;12.53;5.63;;;;;;;21.55;27.19;95909.53;4946205;29;20584;-67
2022/12/26 12:57:23;;;;;;;1.83;1.37;;;;;;;22.26;27.02;95898.06;4946302;29;20241;-67
2022/12/26 13:00:12;;;;;;;1.43;1.33;;;;;;;22.46;27.05;95908.25;4908219;28;20196;-70
2022/12/26 13:02:39;;;;;;;1.97;1.37;;;;;;;22.11;26.65;95909.09;4946599;29;20683;-70
2022/12/26 13:05:22;;;;;;;12.23;2.10;;;;;;;21.84;27.00;95909.22;4950924;29;20262;-65
2022/12/26 13:08:11;;;;;;;0.87;0.80;;;;;;;21.21;27.19;95903.06;4950455;29;20210;-66
2022/12/26 13:10:48;;;;;;;0.60;0.60;;;;;;;20.63;28.35;95911.59;4950454;29;20227;-65
2022/12/26 13:13:25;;;;;;;9.43;8.30;;;;;;;20.08;29.30;95907.16;4950625;29;20599;-66
2022/12/26 13:15:59;;;;;;;7.17;5.27;;;;;;;20.60;29.06;95904.19;4949784;29;20203;-63
2022/12/26 13:18:32;;;;;;;1.43;1.33;;;;;;;20.42;29.28;95902.38;4949993;29;20195;-67
2022/12/26 13:21:04;;;;;;;0.33;0.33;;;;;;;20.43;28.85;95897.84;4948571;29;20235;-67
2022/12/26 13:26:39;;;;;;;0.80;0.73;;;;;;;18.35;31.43;95924.66;4948720;29;20211;-69
2022/12/26 13:29:15;;;;;;;1.73;0.90;;;;;;;16.90;33.40;95920.97;4946014;29;20212;-68
2022/12/26 13:31:46;;;;;;;0.90;0.83;;;;;;;16.67;33.82;95917.06;4947371;29;20589;-64
2022/12/26 13:34:18;;;;;;;0.60;0.60;;;;;;;15.80;34.98;95916.56;4946801;29;20235;-67
2022/12/26 13:36:47;;;;;;;0.57;0.57;;;;;;;15.49;35.32;95920.97;4946417;29;20483;-65
2022/12/26 13:39:29;;;;;;;0.83;0.80;;;;;;;15.18;36.07;95924.56;4944199;29;20448;-66
2022/12/26 13:44:50;;;;;;;0.30;0.30;;;;;;;14.19;37.66;95918.44;4945624;29;20499;-64
2022/12/26 13:47:38;;;;;;;0.53;0.40;;;;;;;14.22;38.32;95915.28;4948224;29;20530;-68
2022/12/26 13:50:43;;;;;;;0.80;0.80;;;;;;;14.23;38.65;95922.16;4946520;29;20523;-68
2022/12/26 13:53:22;;;;;;;0.47;0.47;;;;;;;13.81;39.32;95924.69;4940429;29;20812;-67
2022/12/26 13:56:03;;;;;;;6.40;1.13;;;;;;;13.98;38.75;95930.66;4946410;29;20443;-64
2022/12/26 13:58:55;;;;;;;1.77;1.00;;;;;;;14.18;38.08;95930.03;4949105;29;20503;-62
2022/12/26 14:01:47;;;;;;;0.40;0.40;;;;;;;14.07;38.81;95923.88;4947023;29;21019;-65
2022/12/26 14:05:18;;;;;;;0.30;0.30;;;;;;;13.95;39.16;95919.81;4948206;29;20884;-62
2022/12/26 14:08:02;;;;;;;0.93;0.67;;;;;;;13.94;39.07;95912.97;4919725;29;21054;-68
2022/12/26 14:10:39;;;;;;;0.17;0.17;;;;;;;13.82;39.42;95925.50;4933468;29;20511;-66
2022/12/26 14:13:29;;;;;;;0.37;0.37;;;;;;;13.71;39.42;95919.38;4933557;29;20442;-66
2022/12/26 14:16:14;;;;;;;1.13;0.90;;;;;;;13.74;39.34;95910.19;4946701;29;20474;-70
2022/12/26 14:19:03;;;;;;;0.20;0.20;;;;;;;13.54;39.72;95918.66;4952435;29;20494;-67
2022/12/26 14:21:59;;;;;;;6.93;4.40;;;;;;;13.49;40.75;95921.25;4946632;29;20457;-65
2022/12/26 14:24:42;;;;;;;1.77;1.67;;;;;;;13.87;40.11;95920.28;4942827;29;21392;-65